Tiempo atmosférico en la estación meteorológica de Alfaro, La Rioja (285 m.)



Fecha
DESCASC
Temp. máxima en grados centígrados (hora)
DESCASC
Temp. mínima en grados centígrados (hora)
DESCASC
Temp. media en grados centígrados
DESCASC
Racha de viento máxima en m/sg (hora)
DESCASC
Velocidad máxima media en intervalos de 10 minutos(hora)
DESCASC
Precipitaciones diarias en mm
DESCASC
Precipitaciones de 00:00 a 06:00 en mm
DESCASC
Precipitaciones de 06:00 a 12:00 en mm
DESCASC
Precipitaciones de 12:00 a 18:00 en mm
DESCASC
Precipitaciones de 18:00 a 24:00 en mm
DESCASC
17-08-2018 26.1 (15:10) 16.1 (23:59) 21.1 13.06 (18:20) 8.06 (19:10) 0 0 0 0 0
16-08-2018 30 (17:00) 14.1 (07:40) 22.1 12.78 (19:00) 8.33 (18:30) 0 0 0 0 0
15-08-2018 30.6 (18:20) 14.8 (07:20) 22.7 7.78 (00:10) 4.72 (00:10) 0 0 0 0 0
14-08-2018 26.5 (14:30) 18.2 (06:00) 22.4 13.89 (14:50) 7.78 (14:50) 0 0 0 0 0
13-08-2018 28.7 (16:30) 15.8 (07:10) 22.3 11.39 (19:50) 6.94 (19:20) 0 0 0 0 0
12-08-2018 33.1 (14:10) 19.3 (00:00) 26.2 11.39 (19:20) 7.22 (19:20) 2.6 0 0 0.8 1.8
11-08-2018 32.9 (18:00) 14.7 (00:00) 23.8 7.5 (00:20) 4.44 (00:30) 0 0 0 0 0
10-08-2018 29.6 (18:50) 13.6 (00:00) 21.6 8.33 (02:00) 5 (02:00) 0 0 0 0 0
09-08-2018 25.9 (15:10) 17 (00:00) 21.4 12.78 (06:00) 6.94 (15:30) 0 0 0 0 0
08-08-2018 33 (17:30) 17.9 (00:00) 25.4 17.78 (20:50) 11.39 (21:00) 0 0 0 0 0
07-08-2018 36.9 (16:30) 20.7 (00:00) 28.8 13.89 (18:50) 8.61 (17:30) 0.4 0 0 0.4 0
06-08-2018 36.5 (18:10) 15.7 (00:00) 26.1 5 (17:00) 3.06 (23:00) 0 0 0 0 0
05-08-2018 36.1 (17:20) 20.1 (00:00) 28.1 7.78 (11:10) 4.72 (11:10) 0 0 0 0 0
04-08-2018 35 (15:40) 21.4 (06:50) 28.2 10.83 (17:10) 6.67 (19:50) 0 0 0 0 0
03-08-2018 37.3 (15:30) 20.3 (00:00) 28.8 9.72 (18:10) 5.56 (18:10) 0 0 0 0 0
02-08-2018 36 (19:20) 18.7 (00:00) 27.4 8.33 (00:50) 4.72 (01:10) 0 0 0 0 0
01-08-2018 34 (18:30) 19.8 (07:10) 26.9 8.33 (23:20) 5 (21:50) 0 0 0 0 0
31-07-2018 32.9 (15:40) 19.8 (00:00) 26.4 10 (22:00) 6.11 (22:00) 0 0 0 0 0
30-07-2018 34.7 (17:30) 18.3 (00:00) 26.5 7.78 (23:40) 5.28 (23:59) 0 0 0 0 0
29-07-2018 33.1 (18:10) 14.4 (00:00) 23.7 8.33 (22:40) 5 (22:30) 0 0 0 0 0
28-07-2018 29.7 (16:50) 21.2 (00:00) 25.5 8.61 (01:30) 5.28 (01:30) 0 0 0 0 0
27-07-2018 33.7 (17:50) 18.2 (00:00) 26 8.33 (00:50) 5.28 (22:40) 0 0 0 0 0
26-07-2018 35.7 (16:30) 18.2 (00:00) 27 10.28 (21:50) 6.39 (21:30) 0 0 0 0 0
25-07-2018 33.9 (18:10) 19.4 (00:00) 26.7 6.67 (00:20) 3.89 (17:30) 0 0 0 0 0
24-07-2018 34.4 (17:30) 16.9 (00:00) 25.7 9.72 (21:00) 5 (21:00) 0 0 0 0 0
23-07-2018 33.7 (19:30) 14.9 (00:00) 24.3 5.28 (00:20) 3.33 (00:20) 0 0 0 0 0
22-07-2018 29.2 (17:00) 15.3 (00:00) 22.3 10 (18:50) 5.83 (18:50) 0 0 0 0 0
21-07-2018 24.9 (14:50) 15.5 (00:00) 20.2 8.33 (11:10) 5 (09:30) 0 0 0 0 0
20-07-2018 28.1 (15:10) 18.1 (00:00) 23.1 12.78 (17:30) 7.5 (17:40) 0.8 0 0 0 0.8

Gráficas

Temp. máximas Temp. mínimas Temp. medias Precipitaciones Rachas de viento máximas Velocidades máximas media en intervalos de 10 minutos

Datos horarios

Fecha y hora oficial Temperatura (ºC) Velocidad del viento (km/h) Dirección del viento Racha (km/h) Dirección de racha Precipitación (mm) Presión (hPa) Tendencia (hPa) Humedad (%)
2018-08-18 23:00:00 19.1 10 Noroeste 20 Noroeste 0 -- -- 65
2018-08-18 22:00:00 20 8 Noroeste 23 Norte 0 -- -- 62
2018-08-18 21:00:00 21.7 12 Norte 24 Norte 0 -- -- 55
2018-08-18 20:00:00 23.8 13 Norte 33 Norte 0 -- -- 47
2018-08-18 19:00:00 25.8 14 Norte 30 Noroeste 0 -- -- 40
2018-08-18 18:00:00 26.6 18 Norte 30 Noroeste 0 -- -- 37
2018-08-18 17:00:00 26.8 15 Norte 31 Noroeste 0 -- -- 37
2018-08-18 16:00:00 26.8 14 Noroeste 35 Norte 0 -- -- 39
2018-08-18 15:00:00 26.5 18 Noroeste 32 Noroeste 0 -- -- 40
2018-08-18 14:00:00 25.2 19 Noroeste 35 Noroeste 0 -- -- 44
2018-08-18 13:00:00 23.3 21 Noroeste 36 Noroeste 0 -- -- 46
2018-08-18 12:00:00 21.4 17 Noroeste 36 Noroeste 0 -- -- 52
2018-08-18 11:00:00 19.6 17 Noroeste 37 Noroeste 0 -- -- 55
2018-08-18 10:00:00 19.1 18 Noroeste 35 Noroeste 0 -- -- 55
2018-08-18 09:00:00 17.1 16 Noroeste 31 Noroeste 0 -- -- 61
2018-08-18 08:00:00 15.5 11 Noroeste 21 Noroeste 0 -- -- 68
2018-08-18 07:00:00 14.1 11 Noroeste 20 Noroeste 0 -- -- 73
2018-08-18 06:00:00 13.2 12 Noroeste 23 Noroeste 0 -- -- 78
2018-08-18 05:00:00 12.9 9 Noroeste 17 Noroeste 0 -- -- 81
2018-08-18 04:00:00 13.5 8 Noroeste 18 Noroeste 0 -- -- 78
2018-08-18 03:00:00 13.6 9 Noroeste 16 Noroeste 0 -- -- 78
2018-08-18 02:00:00 14.9 8 Noroeste 21 Noroeste 0 -- -- 74
2018-08-18 01:00:00 15.7 10 Noroeste 23 Noroeste 0 -- -- 70
2018-08-18 00:00:00 16.1 8 Norte 25 Noroeste 0 -- -- 68
2018-08-17 23:00:00 17.1 13 Noroeste 27 Norte 0 -- -- 63
2018-08-17 22:00:00 18.3 17 Noroeste 27 Noroeste 0 -- -- 57
2018-08-17 21:00:00 18.8 16 Noroeste 38 Noroeste 0 -- -- 58
2018-08-17 20:00:00 20.3 24 Noroeste 44 Norte 0 -- -- 55
2018-08-17 19:00:00 21.9 27 Norte 47 Norte 0 -- -- 52
2018-08-17 18:00:00 23.3 25 Norte 44 Norte 0 -- -- 54
2018-08-17 17:00:00 24.4 21 Norte 43 Noroeste 0 -- -- 51
2018-08-17 16:00:00 24.9 27 Noroeste 41 Norte 0 -- -- 50
2018-08-17 15:00:00 25.9 23 Noroeste 42 Noroeste 0 -- -- 49
2018-08-17 14:00:00 25 23 Noroeste 42 Noroeste 0 -- -- 53
2018-08-17 13:00:00 24.9 23 Noroeste 44 Noroeste 0 -- -- 56
2018-08-17 12:00:00 24.3 20 Noroeste 34 Noroeste 0 -- -- 54
2018-08-17 11:00:00 23.1 18 Noroeste 31 Norte 0 -- -- 58
2018-08-17 10:00:00 21.3 13 Noroeste 34 Noroeste 0 -- -- 63
2018-08-17 09:00:00 19.6 19 Noroeste 31 Noroeste 0 -- -- 71
2018-08-17 08:00:00 17.8 12 Noroeste 22 Noroeste 0 -- -- 78
2018-08-17 07:00:00 17.6 13 Noroeste 23 Noroeste 0 -- -- 77
2018-08-17 06:00:00 18.2 14 Noroeste 22 Noroeste 0 -- -- 77
2018-08-17 05:00:00 18.5 9 Noroeste 21 Noroeste 0 -- -- 77
2018-08-17 04:00:00 19.6 9 Noroeste 17 Noroeste 0 -- -- 75
2018-08-17 03:00:00 19.4 6 Noroeste 17 Noroeste 0 -- -- 79
2018-08-17 02:00:00 19.8 9 Norte 20 Noroeste 0 -- -- 78
2018-08-17 01:00:00 19.7 8 Noroeste 17 Norte 0 -- -- 78
2018-08-17 00:00:00 20.7 12 Noroeste 18 Noroeste 0 -- -- 74
2018-08-16 23:00:00 21.2 10 Norte 22 Norte 0 -- -- 73
2018-08-16 22:00:00 22 13 Norte 27 Norte 0 -- -- 71
2018-08-16 21:00:00 23.4 15 Norte 42 Norte 0 -- -- 66
2018-08-16 20:00:00 25 22 Norte 42 Noroeste 0 -- -- 60
2018-08-16 19:00:00 26.3 28 Norte 46 Norte 0 -- -- 58
2018-08-16 18:00:00 29.5 27 Noroeste 43 Noroeste 0 -- -- 49
2018-08-16 17:00:00 30 13 Noroeste 22 Noroeste 0 -- -- 49
2018-08-16 16:00:00 29.4 8 Noroeste 20 Noroeste 0 -- -- 52
2018-08-16 15:00:00 27.9 10 Noroeste 22 Noroeste 0 -- -- 57
2018-08-16 14:00:00 26.8 7 Norte 17 Norte 0 -- -- 60
2018-08-16 13:00:00 25.8 6 Norte 14 Norte 0 -- -- 62
2018-08-16 12:00:00 23.6 4 Oeste 13 Noroeste 0 -- -- 66
2018-08-16 11:00:00 20.9 8 Noroeste 11 Norte 0 -- -- 74
2018-08-16 10:00:00 19.4 5 Norte 8 Norte 0 -- -- 81
2018-08-16 09:00:00 17.6 0 Calma 6 Nordeste 0 -- -- 88
2018-08-16 08:00:00 14.9 2 Norte 10 Oeste 0 -- -- 90
2018-08-16 07:00:00 14.3 2 Sudeste 6 Sur 0 -- -- 88
2018-08-16 06:00:00 14.3 3 Sudoeste 8 Sudoeste 0 -- -- 87
2018-08-16 05:00:00 14.8 4 Sudoeste 6 Sudoeste 0 -- -- 84
2018-08-16 04:00:00 15.6 4 Sur 6 Sur 0 -- -- 81
2018-08-16 03:00:00 16.3 3 Sudoeste 9 Oeste 0 -- -- 78
2018-08-16 02:00:00 17.9 0 Calma 9 Este 0 -- -- 79
2018-08-16 01:00:00 19.8 4 Norte 15 Noroeste 0 -- -- 73
2018-08-16 00:00:00 21.1 10 Noroeste 17 Noroeste 0 -- -- 70
2018-08-15 23:00:00 21.3 6 Noroeste 11 Oeste 0 -- -- 68
2018-08-15 22:00:00 23.4 6 Sudoeste 10 Sudoeste 0 -- -- 56
2018-08-15 21:00:00 27.8 3 Norte 4 Norte 0 -- -- 44
2018-08-15 20:00:00 29.8 2 Norte 6 Noroeste 0 -- -- 36
2018-08-15 19:00:00 30.6 0 Calma 8 Sudeste 0 -- -- 35
2018-08-15 18:00:00 30.2 2 Norte 14 Nordeste 0 -- -- 37
2018-08-15 17:00:00 29.9 5 Sudeste 14 Nordeste 0 -- -- 36
2018-08-15 16:00:00 28.9 5 Este 13 Norte 0 -- -- 38
2018-08-15 15:00:00 27.6 6 Este 14 Este 0 -- -- 42
2018-08-15 14:00:00 26.3 4 Norte 14 Noroeste 0 -- -- 46
2018-08-15 13:00:00 24.7 6 Norte 17 Norte 0 -- -- 50
2018-08-15 12:00:00 23.8 8 Noroeste 23 Norte 0 -- -- 50
2018-08-15 11:00:00 21.9 13 Norte 23 Noroeste 0 -- -- 58
2018-08-15 10:00:00 20.9 12 Noroeste 24 Noroeste 0 -- -- 63
2018-08-15 09:00:00 18 7 Noroeste 16 Norte 0 -- -- 75
2018-08-15 08:00:00 15.4 8 Noroeste 13 Norte 0 -- -- 85
2018-08-15 07:00:00 14.9 6 Noroeste 15 Norte 0 -- -- 85
2018-08-15 06:00:00 15.4 6 Noroeste 15 Noroeste 0 -- -- 82
2018-08-15 05:00:00 16.7 10 Noroeste 23 Noroeste 0 -- -- 76
2018-08-15 04:00:00 16.8 12 Noroeste 21 Noroeste 0 -- -- 75
2018-08-15 03:00:00 17.4 14 Noroeste 26 Noroeste 0 -- -- 73
2018-08-15 02:00:00 17.8 13 Noroeste 24 Noroeste 0 -- -- 71
2018-08-15 01:00:00 18 14 Noroeste 28 Noroeste 0 -- -- 70
2018-08-15 00:00:00 19.1 17 Noroeste 30 Noroeste 0 -- -- 64
2018-08-14 23:00:00 19.8 19 Noroeste 38 Norte 0 -- -- 62
2018-08-14 22:00:00 20.3 19 Noroeste 42 Norte 0 -- -- 59
2018-08-14 21:00:00 21.3 21 Norte 40 Norte 0 -- -- 55
2018-08-14 20:00:00 23 25 Norte 44 Norte 0 -- -- 51
2018-08-14 19:00:00 24.7 22 Norte 41 Noroeste 0 -- -- 45
2018-08-14 18:00:00 25.2 22 Norte 43 Noroeste 0 -- -- 45
2018-08-14 17:00:00 25.4 22 Noroeste 42 Noroeste 0 -- -- 45
2018-08-14 16:00:00 25.9 23 Norte 49 Noroeste 0 -- -- 46
2018-08-14 15:00:00 25.4 25 Norte 50 Norte 0 -- -- 44
2018-08-14 14:00:00 25 21 Norte 36 Noroeste 0 -- -- 45
2018-08-14 13:00:00 22.6 18 Norte 33 Noroeste 0 -- -- 53
2018-08-14 12:00:00 21.7 16 Noroeste 32 Noroeste 0 -- -- 57
2018-08-14 11:00:00 21.4 16 Noroeste 32 Noroeste 0 -- -- 59
2018-08-14 10:00:00 20.4 18 Noroeste 33 Noroeste 0 -- -- 63
2018-08-14 09:00:00 19.4 11 Noroeste 27 Norte 0 -- -- 70
2018-08-14 08:00:00 19 14 Noroeste 24 Noroeste 0 -- -- 71
2018-08-14 07:00:00 18.7 9 Norte 18 Norte 0 -- -- 73
2018-08-14 06:00:00 18.2 8 Norte 18 Noroeste 0 -- -- 76
2018-08-14 05:00:00 19.1 7 Norte 15 Noroeste 0 -- -- 73
2018-08-14 04:00:00 19.3 6 Norte 19 Norte 0 -- -- 73
2018-08-14 03:00:00 19.7 11 Norte 20 Norte 0 -- -- 70
2018-08-14 02:00:00 20 8 Norte 21 Norte 0 -- -- 68
2018-08-14 01:00:00 20.3 12 Norte 22 Norte 0 -- -- 66
2018-08-14 00:00:00 20.1 12 Norte 24 Norte 0 -- -- 68
2018-08-13 23:00:00 20.1 13 Norte 21 Norte 0 -- -- 70
2018-08-13 22:00:00 20.2 12 Norte 23 Norte 0 -- -- 68
2018-08-13 21:00:00 21.4 15 Norte 37 Norte 0 -- -- 63
2018-08-13 20:00:00 23.3 22 Norte 41 Norte 0 -- -- 57
2018-08-13 19:00:00 25.4 23 Norte 37 Norte 0 -- -- 52
2018-08-13 18:00:00 27.5 19 Norte 35 Norte 0 -- -- 46
2018-08-13 17:00:00 28 16 Norte 36 Norte 0 -- -- 49
2018-08-13 16:00:00 27.4 14 Norte 25 Noroeste 0 -- -- 50
2018-08-13 15:00:00 28.1 10 Norte 24 Norte 0 -- -- 52
2018-08-13 14:00:00 28.2 10 Norte 27 Noroeste 0 -- -- 49
2018-08-13 13:00:00 27 9 Norte 21 Nordeste 0 -- -- 54
2018-08-13 12:00:00 25.6 13 Noroeste 19 Noroeste 0 -- -- 61
2018-08-13 11:00:00 23.6 11 Noroeste 19 Noroeste 0 -- -- 66
2018-08-13 10:00:00 21.9 7 Norte 13 Noroeste 0 -- -- 76
2018-08-13 09:00:00 19.6 6 Noroeste 14 Noroeste 0 -- -- 86
2018-08-13 08:00:00 16.4 0 Calma 5 Nordeste 0 -- -- 95
2018-08-13 07:00:00 15.9 0 Calma 6 Oeste 0 -- -- 92
2018-08-13 06:00:00 16.8 4 Noroeste 14 Noroeste 0 -- -- 90
2018-08-13 05:00:00 17.2 5 Noroeste 11 Noroeste 0 -- -- 90
2018-08-13 04:00:00 17.6 7 Noroeste 13 Noroeste 0 -- -- 91
2018-08-13 03:00:00 17.9 0 Calma 8 Noroeste 0 -- -- 93
2018-08-13 02:00:00 18.2 3 Oeste 7 Sudoeste 0 -- -- 92
2018-08-13 01:00:00 18.7 4 Oeste 9 Oeste 0 -- -- 89
2018-08-13 00:00:00 19.3 3 Norte 12 Noroeste 0 -- -- 86
2018-08-12 23:00:00 20.6 7 Noroeste 13 Noroeste 0 -- -- 86
2018-08-12 22:00:00 21 8 Norte 22 Sudeste 0 -- -- 83
2018-08-12 21:00:00 21.4 13 Sudeste 34 Sudeste 1.8 -- -- 77
2018-08-12 20:00:00 23.3 14 Sudeste 41 Sudeste 0 -- -- 69
2018-08-12 19:00:00 25.5 21 Sudeste 32 Sudeste 0 -- -- 63
2018-08-12 18:00:00 27.1 3 Nordeste 10 Sur 0 -- -- 70
2018-08-12 17:00:00 25 5 Este 13 Noroeste 0.8 -- -- 83
2018-08-12 16:00:00 26.8 3 Oeste 17 Sudeste 0 -- -- 61
2018-08-12 15:00:00 28.4 13 Sur 30 Sudeste 0 -- -- 62
2018-08-12 14:00:00 32.7 13 Sudeste 24 Sudeste 0 -- -- 48
2018-08-12 13:00:00 30.3 16 Sudeste 28 Sudeste 0 -- -- 57
2018-08-12 12:00:00 28.8 16 Sudeste 29 Sudeste 0 -- -- 64
2018-08-12 11:00:00 27.2 15 Sudeste 34 Sudeste 0 -- -- 70
2018-08-12 10:00:00 25.5 21 Sudeste 33 Sudeste 0 -- -- 77
2018-08-12 09:00:00 23.9 20 Sudeste 30 Sudeste 0 -- -- 83
2018-08-12 08:00:00 22.9 13 Sudeste 21 Sudeste 0 -- -- 86
2018-08-12 07:00:00 22.8 12 Sudeste 21 Sudeste 0 -- -- 87
2018-08-12 06:00:00 20.5 5 Este 9 Este 0 -- -- 93
2018-08-12 05:00:00 20.5 5 Sudeste 11 Sudeste 0 -- -- 90
2018-08-12 04:00:00 19.8 8 Sudeste 9 Sudeste 0 -- -- 89
2018-08-12 03:00:00 20 2 Sudoeste 4 Sudoeste 0 -- -- 79
2018-08-12 02:00:00 21.1 4 Sudoeste 8 Sur 0 -- -- 75
2018-08-12 01:00:00 21.9 4 Sur 8 Sudoeste 0 -- -- 69
2018-08-12 00:00:00 23.3 4 Este 9 Este 0 -- -- 72
2018-08-11 23:00:00 25 3 Sudoeste 8 Sudoeste 0 -- -- 64
2018-08-11 22:00:00 26.9 6 Este 8 Este 0 -- -- 59
2018-08-11 21:00:00 30.1 2 Nordeste 7 Norte 0 -- -- 52
2018-08-11 20:00:00 31.3 5 Norte 13 Norte 0 -- -- 45
2018-08-11 19:00:00 32.3 9 Nordeste 17 Nordeste 0 -- -- 40
2018-08-11 18:00:00 32.9 5 Este 18 Este 0 -- -- 39
2018-08-11 17:00:00 32.5 6 Este 17 Este 0 -- -- 42
2018-08-11 16:00:00 31.9 6 Este 21 Este 0 -- -- 43
2018-08-11 15:00:00 30.9 8 Este 21 Sudeste 0 -- -- 49
2018-08-11 14:00:00 29.5 13 Sudeste 24 Sudeste 0 -- -- 51
2018-08-11 13:00:00 27.7 14 Sudeste 26 Sudeste 0 -- -- 57
2018-08-11 12:00:00 25.7 6 Este 13 Este 0 -- -- 52
2018-08-11 11:00:00 23.6 4 Sudeste 11 Este 0 -- -- 58
2018-08-11 10:00:00 20.9 4 Nordeste 10 Norte 0 -- -- 64
2018-08-11 09:00:00 18.8 3 Norte 7 Norte 0 -- -- 73
2018-08-11 08:00:00 15.4 0 Calma 4 Sur 0 -- -- 89
2018-08-11 07:00:00 14.8 2 Sur 5 Oeste 0 -- -- 83
2018-08-11 06:00:00 16.1 3 Norte 8 Norte 0 -- -- 85
2018-08-11 05:00:00 16.7 5 Noroeste 8 Norte 0 -- -- 83
2018-08-11 04:00:00 17.6 3 Nordeste 11 Noroeste 0 -- -- 77
2018-08-11 03:00:00 18.9 6 Noroeste 18 Noroeste 0 -- -- 71
2018-08-11 02:00:00 19.5 11 Noroeste 26 Noroeste 0 -- -- 70
2018-08-11 01:00:00 19.8 14 Noroeste 27 Noroeste 0 -- -- 70
2018-08-11 00:00:00 20.6 14 Noroeste 27 Noroeste 0 -- -- 67
2018-08-10 23:00:00 21.3 12 Noroeste 21 Noroeste 0 -- -- 65
2018-08-10 22:00:00 22.9 10 Norte 22 Norte 0 -- -- 61
2018-08-10 21:00:00 26.7 4 Norte 7 Norte 0 -- -- 47
2018-08-10 20:00:00 29 3 Sur 10 Sudeste 0 -- -- 38
2018-08-10 19:00:00 29.5 4 Este 14 Sudeste 0 -- -- 40
2018-08-10 18:00:00 29.2 4 Nordeste 16 Este 0 -- -- 35
2018-08-10 17:00:00 29.3 5 Sudeste 17 Este 0 -- -- 37
2018-08-10 16:00:00 27.6 10 Nordeste 19 Nordeste 0 -- -- 40
2018-08-10 15:00:00 26.8 5 Este 18 Este 0 -- -- 37
2018-08-10 14:00:00 25.3 9 Este 19 Este 0 -- -- 41
2018-08-10 13:00:00 24.1 4 Noroeste 20 Noroeste 0 -- -- 44
2018-08-10 12:00:00 22.5 10 Noroeste 22 Noroeste 0 -- -- 53
2018-08-10 11:00:00 20.5 13 Norte 24 Noroeste 0 -- -- 55
2018-08-10 10:00:00 19.5 13 Noroeste 23 Norte 0 -- -- 59
2018-08-10 09:00:00 16.6 11 Noroeste 17 Norte 0 -- -- 72
2018-08-10 08:00:00 14.7 10 Noroeste 19 Noroeste 0 -- -- 79
2018-08-10 07:00:00 14.4 7 Noroeste 14 Noroeste 0 -- -- 80
2018-08-10 06:00:00 13.9 4 Norte 16 Noroeste 0 -- -- 80
2018-08-10 05:00:00 15.5 10 Noroeste 28 Noroeste 0 -- -- 71
2018-08-10 04:00:00 16.1 16 Noroeste 26 Noroeste 0 -- -- 70
2018-08-10 03:00:00 16 12 Noroeste 28 Noroeste 0 -- -- 70
2018-08-10 02:00:00 16.6 18 Noroeste 30 Noroeste 0 -- -- 67
2018-08-10 01:00:00 16.7 15 Noroeste 29 Noroeste 0 -- -- 65
2018-08-10 00:00:00 17 13 Noroeste 26 Noroeste 0 -- -- 65
2018-08-09 23:00:00 17.5 12 Noroeste 26 Norte 0 -- -- 65
2018-08-09 22:00:00 18.3 14 Norte 39 Norte 0 -- -- 61
2018-08-09 21:00:00 19.8 19 Norte 34 Norte 0 -- -- 59
2018-08-09 20:00:00 21.3 19 Norte 41 Nordeste 0 -- -- 52
2018-08-09 19:00:00 22.6 22 Norte 39 Norte 0 -- -- 50
2018-08-09 18:00:00 23 21 Norte 38 Norte 0 -- -- 51
2018-08-09 17:00:00 23.7 24 Norte 42 Norte 0 -- -- 47
2018-08-09 16:00:00 24.5 23 Norte 40 Noroeste 0 -- -- 44
2018-08-09 15:00:00 25.3 22 Noroeste 39 Norte 0 -- -- 43
2018-08-09 14:00:00 24.9 18 Noroeste 37 Noroeste 0 -- -- 45
2018-08-09 13:00:00 24.2 23 Noroeste 40 Noroeste 0 -- -- 46
2018-08-09 12:00:00 23.5 22 Noroeste 36 Norte 0 -- -- 47
2018-08-09 11:00:00 22.2 20 Noroeste 34 Noroeste 0 -- -- 53
2018-08-09 10:00:00 20.8 22 Noroeste 36 Noroeste 0 -- -- 57
2018-08-09 09:00:00 19.1 21 Noroeste 33 Noroeste 0 -- -- 63
2018-08-09 08:00:00 19 19 Noroeste 33 Noroeste 0 -- -- 65
2018-08-09 07:00:00 19.3 22 Noroeste 40 Noroeste 0 -- -- 67
2018-08-09 06:00:00 20.4 23 Noroeste 46 Noroeste 0 -- -- 67
2018-08-09 05:00:00 21.9 18 Noroeste 28 Noroeste 0 -- -- 74
2018-08-09 04:00:00 22.7 11 Noroeste 19 Oeste 0 -- -- 74
2018-08-09 03:00:00 23.1 9 Sur 26 Sudeste 0 -- -- 81
2018-08-09 02:00:00 23.4 12 Sur 28 Sudeste 0 -- -- 79
2018-08-09 01:00:00 24 19 Sudeste 35 Sudeste 0 -- -- 72
2018-08-09 00:00:00 24.3 8 Nordeste 47 Sudeste 0 -- -- 66
2018-08-08 23:00:00 24.5 24 Sudeste 51 Sudeste 0 -- -- 65
2018-08-08 22:00:00 26 33 Sudeste 61 Sudeste 0 -- -- 54
2018-08-08 21:00:00 28.6 41 Sudeste 64 Sudeste 0 -- -- 43
2018-08-08 20:00:00 31.2 14 Sudeste 31 Sudeste 0 -- -- 45
2018-08-08 19:00:00 32.7 14 Sudeste 21 Sur 0 -- -- 43
2018-08-08 18:00:00 32.7 15 Sudeste 26 Sur 0 -- -- 41
2018-08-08 17:00:00 32.6 13 Sudeste 27 Sudeste 0 -- -- 42
2018-08-08 16:00:00 31.4 14 Sudeste 25 Este 0 -- -- 42
2018-08-08 15:00:00 30.1 11 Sudeste 24 Sudeste 0 -- -- 50
2018-08-08 14:00:00 28.5 9 Sudeste 22 Sudeste 0 -- -- 48
2018-08-08 13:00:00 27.1 7 Sudeste 16 Este 0 -- -- 54
2018-08-08 12:00:00 25 7 Nordeste 13 Este 0 -- -- 57
2018-08-08 11:00:00 23.3 8 Norte 15 Norte 0 -- -- 59
2018-08-08 10:00:00 21.4 9 Norte 17 Noroeste 0 -- -- 63
2018-08-08 09:00:00 20.5 7 Noroeste 13 Noroeste 0 -- -- 69
2018-08-08 08:00:00 18.2 6 Noroeste 9 Noroeste 0 -- -- 81
2018-08-08 07:00:00 18.1 5 Noroeste 11 Oeste 0 -- -- 79
2018-08-08 06:00:00 18.8 9 Noroeste 17 Noroeste 0 -- -- 75
2018-08-08 05:00:00 19.1 9 Noroeste 23 Noroeste 0 -- -- 74
2018-08-08 04:00:00 19.9 10 Noroeste 21 Noroeste 0 -- -- 71
2018-08-08 03:00:00 20.5 12 Noroeste 22 Norte 0 -- -- 70
2018-08-08 02:00:00 20.8 13 Norte 25 Norte 0 -- -- 71
2018-08-08 01:00:00 20.8 9 Noroeste 24 Norte 0 -- -- 71
2018-08-08 00:00:00 20.9 15 Norte 28 Noroeste 0 -- -- 70
2018-08-07 23:00:00 20.9 16 Norte 25 Norte 0 -- -- 71
2018-08-07 22:00:00 21.1 14 Norte 35 Norte 0 -- -- 70
2018-08-07 21:00:00 22.3 21 Norte 36 Norte 0 -- -- 64
2018-08-07 20:00:00 23.3 17 Norte 38 Norte 0 -- -- 61
2018-08-07 19:00:00 24.3 28 Norte 50 Norte 0 -- -- 64
2018-08-07 18:00:00 27 28 Norte 49 Norte 0.4 -- -- 60
2018-08-07 17:00:00 34.8 6 Norte 24 Sudeste 0 -- -- 33
2018-08-07 16:00:00 36 13 Sudeste 27 Sudeste 0 -- -- 35
2018-08-07 15:00:00 34.7 21 Sudeste 30 Sudeste 0 -- -- 36
2018-08-07 14:00:00 32 17 Sudeste 29 Sudeste 0 -- -- 48
2018-08-07 13:00:00 30.8 18 Sudeste 28 Sudeste 0 -- -- 52
2018-08-07 12:00:00 29.7 15 Sudeste 32 Sudeste 0 -- -- 59
2018-08-07 11:00:00 27.1 17 Sudeste 30 Sudeste 0 -- -- 67
2018-08-07 10:00:00 25.8 10 Sudeste 22 Sudeste 0 -- -- 71
2018-08-07 09:00:00 23.2 10 Sudeste 15 Sudeste 0 -- -- 76
2018-08-07 08:00:00 21.6 7 Sur 11 Sur 0 -- -- 80
2018-08-07 07:00:00 21.3 7 Sudeste 10 Sur 0 -- -- 80
2018-08-07 06:00:00 20.9 7 Sur 9 Sur 0 -- -- 81
2018-08-07 05:00:00 21 7 Sur 9 Sudoeste 0 -- -- 76
2018-08-07 04:00:00 21.5 4 Sur 13 Este 0 -- -- 70
2018-08-07 03:00:00 22.4 3 Sur 14 Este 0 -- -- 65
2018-08-07 02:00:00 23.7 4 Nordeste 15 Sudeste 0 -- -- 64
2018-08-07 01:00:00 24.2 9 Sudeste 13 Sudeste 0 -- -- 62
2018-08-07 00:00:00 24.9 6 Sur 12 Sudeste 0 -- -- 59
2018-08-06 23:00:00 26.1 11 Sur 14 Sur 0 -- -- 56
2018-08-06 22:00:00 28.2 5 Sudoeste 8 Sudoeste 0 -- -- 47
2018-08-06 21:00:00 31 3 Este 8 Este 0 -- -- 51
2018-08-06 20:00:00 33.2 5 Este 10 Este 0 -- -- 41
2018-08-06 19:00:00 35.2 8 Este 14 Este 0 -- -- 36
2018-08-06 18:00:00 36.3 4 Norte 14 Norte 0 -- -- 27
2018-08-06 17:00:00 36.1 6 Este 18 Este 0 -- -- 30
2018-08-06 16:00:00 35.6 5 Sudeste 15 Este 0 -- -- 31
2018-08-06 15:00:00 34 5 Nordeste 12 Este 0 -- -- 35
2018-08-06 14:00:00 33 3 Este 10 Sudeste 0 -- -- 43
2018-08-06 13:00:00 31.1 4 Sur 9 Nordeste 0 -- -- 44
2018-08-06 12:00:00 28.6 3 Nordeste 10 Nordeste 0 -- -- 47
2018-08-06 11:00:00 26.5 6 Nordeste 11 Nordeste 0 -- -- 51
2018-08-06 10:00:00 24.5 4 Norte 11 Noroeste 0 -- -- 60
2018-08-06 09:00:00 21.5 4 Noroeste 8 Noroeste 0 -- -- 73
2018-08-06 08:00:00 16.7 2 Oeste 5 Oeste 0 -- -- 84
2018-08-06 07:00:00 15.7 7 Sur 9 Sur 0 -- -- 87
2018-08-06 06:00:00 16.7 3 Oeste 8 Sur 0 -- -- 85
2018-08-06 05:00:00 18.7 4 Sudoeste 10 Noroeste 0 -- -- 76
2018-08-06 04:00:00 19.5 3 Oeste 10 Norte 0 -- -- 74
2018-08-06 03:00:00 21.7 6 Noroeste 15 Noroeste 0 -- -- 70
2018-08-06 02:00:00 21 5 Norte 6 Norte 0 -- -- 71
2018-08-06 01:00:00 23.6 6 Norte 10 Noroeste 0 -- -- 60
2018-08-06 00:00:00 25.3 7 Noroeste 15 Noroeste 0 -- -- 56
2018-08-05 23:00:00 26.9 10 Noroeste 23 Noroeste 0 -- -- 56
2018-08-05 22:00:00 28.2 12 Noroeste 25 Norte 0 -- -- 54
2018-08-05 21:00:00 30.5 14 Norte 24 Norte 0 -- -- 46
2018-08-05 20:00:00 33 11 Norte 23 Norte 0 -- -- 40
2018-08-05 19:00:00 35.2 13 Norte 23 Noroeste 0 -- -- 32
2018-08-05 18:00:00 35.8 11 Noroeste 21 Noroeste 0 -- -- 29
2018-08-05 17:00:00 36 12 Noroeste 23 Noroeste 0 -- -- 30
2018-08-05 16:00:00 35 11 Noroeste 22 Noroeste 0 -- -- 32
2018-08-05 15:00:00 34.1 10 Noroeste 20 Norte 0 -- -- 36
2018-08-05 14:00:00 32.9 7 Noroeste 24 Norte 0 -- -- 35
2018-08-05 13:00:00 31.4 15 Norte 28 Norte 0 -- -- 39
2018-08-05 12:00:00 29.9 15 Norte 28 Norte 0 -- -- 45
2018-08-05 11:00:00 28.2 14 Norte 25 Noroeste 0 -- -- 48
2018-08-05 10:00:00 25.1 13 Noroeste 22 Noroeste 0 -- -- 57
2018-08-05 09:00:00 22.4 15 Noroeste 24 Norte 0 -- -- 64
2018-08-05 08:00:00 20.6 12 Noroeste 19 Noroeste 0 -- -- 70
2018-08-05 07:00:00 20.2 10 Noroeste 19 Noroeste 0 -- -- 71
2018-08-05 06:00:00 20.5 11 Norte 18 Noroeste 0 -- -- 71
2018-08-05 05:00:00 21.2 10 Noroeste 20 Noroeste 0 -- -- 68
2018-08-05 04:00:00 21.6 11 Noroeste 20 Norte 0 -- -- 67
2018-08-05 03:00:00 22.3 11 Noroeste 22 Noroeste 0 -- -- 66
2018-08-05 02:00:00 22.8 13 Noroeste 21 Noroeste 0 -- -- 62
2018-08-05 01:00:00 23.1 11 Noroeste 18 Norte 0 -- -- 59
2018-08-05 00:00:00 25.4 13 Noroeste 30 Noroeste 0 -- -- 48
2018-08-04 23:00:00 26.1 16 Noroeste 31 Noroeste 0 -- -- 47
2018-08-04 22:00:00 27.2 16 Noroeste 31 Noroeste 0 -- -- 45
2018-08-04 21:00:00 28.6 16 Norte 38 Norte 0 -- -- 41
2018-08-04 20:00:00 30.6 21 Norte 39 Norte 0 -- -- 39
2018-08-04 19:00:00 32.8 21 Norte 33 Norte 0 -- -- 35
2018-08-04 18:00:00 33.3 20 Norte 39 Norte 0 -- -- 34
2018-08-04 17:00:00 34.3 21 Norte 35 Norte 0 -- -- 31
2018-08-04 16:00:00 34.6 20 Norte 36 Noroeste 0 -- -- 30
2018-08-04 15:00:00 34.8 15 Norte 33 Norte 0 -- -- 31
2018-08-04 14:00:00 33.8 14 Norte 30 Noroeste 0 -- -- 34
2018-08-04 13:00:00 32.7 16 Norte 31 Noroeste 0 -- -- 37
2018-08-04 12:00:00 30.8 19 Noroeste 35 Noroeste 0 -- -- 41
2018-08-04 11:00:00 29 19 Noroeste 33 Noroeste 0 -- -- 43
2018-08-04 10:00:00 26 14 Noroeste 23 Noroeste 0 -- -- 54
2018-08-04 09:00:00 23.2 12 Noroeste 27 Noroeste 0 -- -- 63
2018-08-04 08:00:00 21.6 13 Noroeste 26 Noroeste 0 -- -- 68
2018-08-04 07:00:00 21.4 12 Noroeste 22 Noroeste 0 -- -- 69
2018-08-04 06:00:00 21.8 11 Noroeste 23 Noroeste 0 -- -- 69
2018-08-04 05:00:00 22.5 13 Noroeste 23 Noroeste 0 -- -- 66
2018-08-04 04:00:00 23.1 11 Noroeste 27 Noroeste 0 -- -- 61
2018-08-04 03:00:00 23.8 14 Noroeste 22 Noroeste 0 -- -- 54
2018-08-04 02:00:00 24.4 10 Noroeste 28 Noroeste 0 -- -- 52
2018-08-04 01:00:00 24.5 18 Noroeste 31 Oeste 0 -- -- 51
2018-08-04 00:00:00 25.7 14 Noroeste 28 Noroeste 0 -- -- 48
2018-08-03 23:00:00 26.3 13 Noroeste 30 Noroeste 0 -- -- 44
2018-08-03 22:00:00 27.5 10 Noroeste 26 Norte 0 -- -- 44
2018-08-03 21:00:00 30.1 10 Norte 32 Norte 0 -- -- 42
2018-08-03 20:00:00 32.4 13 Norte 33 Nordeste 0 -- -- 37
2018-08-03 19:00:00 34.5 18 Norte 35 Norte 0 -- -- 32
2018-08-03 18:00:00 35.6 19 Norte 33 Norte 0 -- -- 29
2018-08-03 17:00:00 36.8 19 Norte 32 Norte 0 -- -- 23
2018-08-03 16:00:00 37.1 14 Norte 32 Norte 0 -- -- 24
2018-08-03 15:00:00 36.2 13 Norte 25 Norte 0 -- -- 27
2018-08-03 14:00:00 34.6 12 Noroeste 29 Noroeste 0 -- -- 36
2018-08-03 13:00:00 32.7 9 Noroeste 22 Noroeste 0 -- -- 43
2018-08-03 12:00:00 30.9 12 Norte 21 Norte 0 -- -- 46
2018-08-03 11:00:00 28.7 12 Norte 24 Noroeste 0 -- -- 54
2018-08-03 10:00:00 26.3 12 Noroeste 23 Noroeste 0 -- -- 62
2018-08-03 09:00:00 24 9 Noroeste 19 Noroeste 0 -- -- 72
2018-08-03 08:00:00 21.8 7 Noroeste 18 Noroeste 0 -- -- 82
2018-08-03 07:00:00 20.5 8 Noroeste 20 Noroeste 0 -- -- 83
2018-08-03 06:00:00 20.7 10 Noroeste 15 Noroeste 0 -- -- 81
2018-08-03 05:00:00 20.6 7 Noroeste 13 Noroeste 0 -- -- 79
2018-08-03 04:00:00 20.7 6 Oeste 10 Oeste 0 -- -- 77
2018-08-03 03:00:00 21.2 4 Noroeste 9 Noroeste 0 -- -- 75
2018-08-03 02:00:00 22.7 3 Noroeste 14 Oeste 0 -- -- 68
2018-08-03 01:00:00 24 9 Noroeste 14 Oeste 0 -- -- 68
2018-08-03 00:00:00 25.5 11 Oeste 17 Oeste 0 -- -- 67
2018-08-02 23:00:00 26.8 12 Oeste 15 Oeste 0 -- -- 62
2018-08-02 22:00:00 29.3 7 Noroeste 13 Norte 0 -- -- 53
2018-08-02 21:00:00 31.8 6 Norte 18 Norte 0 -- -- 47
2018-08-02 20:00:00 35.3 9 Noroeste 21 Noroeste 0 -- -- 32
2018-08-02 19:00:00 35.9 12 Noroeste 21 Noroeste 0 -- -- 33
2018-08-02 18:00:00 35.5 5 Norte 14 Nordeste 0 -- -- 38
2018-08-02 17:00:00 34.7 7 Noroeste 17 Norte 0 -- -- 41
2018-08-02 16:00:00 33.9 7 Nordeste 15 Nordeste 0 -- -- 42
2018-08-02 15:00:00 32.5 5 Este 11 Norte 0 -- -- 46
2018-08-02 14:00:00 30.7 6 Este 12 Noroeste 0 -- -- 49
2018-08-02 13:00:00 29 5 Norte 15 Norte 0 -- -- 56
2018-08-02 12:00:00 27.3 8 Norte 15 Norte 0 -- -- 59
2018-08-02 11:00:00 25.3 7 Norte 17 Norte 0 -- -- 64
2018-08-02 10:00:00 23.4 8 Norte 14 Noroeste 0 -- -- 72
2018-08-02 09:00:00 21.4 9 Norte 14 Norte 0 -- -- 78
2018-08-02 08:00:00 19.5 6 Noroeste 12 Norte 0 -- -- 86
2018-08-02 07:00:00 18.8 0 Calma 12 Noroeste 0 -- -- 86
2018-08-02 06:00:00 19.1 6 Norte 13 Noroeste 0 -- -- 86
2018-08-02 05:00:00 20 8 Noroeste 21 Noroeste 0 -- -- 82
2018-08-02 04:00:00 20.7 13 Noroeste 25 Noroeste 0 -- -- 79
2018-08-02 03:00:00 21.3 11 Noroeste 23 Noroeste 0 -- -- 76
2018-08-02 02:00:00 21.9 13 Noroeste 28 Noroeste 0 -- -- 75
2018-08-02 01:00:00 22.5 14 Noroeste 30 Noroeste 0 -- -- 73
2018-08-02 00:00:00 23.2 14 Noroeste 30 Noroeste 0 -- -- 69
2018-08-01 23:00:00 24.3 14 Noroeste 27 Norte 0 -- -- 66
2018-08-01 22:00:00 25.7 15 Noroeste 30 Norte 0 -- -- 61
2018-08-01 21:00:00 29.6 13 Norte 21 Norte 0 -- -- 53
2018-08-01 20:00:00 33.8 0 Calma 7 Norte 0 -- -- 38
2018-08-01 19:00:00 33.5 6 Norte 12 Norte 0 -- -- 35
2018-08-01 18:00:00 33.5 4 Este 10 Nordeste 0 -- -- 36
2018-08-01 17:00:00 33.4 6 Este 12 Este 0 -- -- 37
2018-08-01 16:00:00 32.4 5 Sudeste 14 Norte 0 -- -- 43
2018-08-01 15:00:00 31.4 5 Norte 14 Norte 0 -- -- 44
2018-08-01 14:00:00 30.4 8 Noroeste 18 Noroeste 0 -- -- 48
2018-08-01 13:00:00 28.7 11 Norte 23 Noroeste 0 -- -- 52
2018-08-01 12:00:00 27.3 12 Norte 28 Noroeste 0 -- -- 57
2018-08-01 11:00:00 25.4 15 Norte 28 Norte 0 -- -- 61
2018-08-01 10:00:00 23.8 16 Noroeste 26 Norte 0 -- -- 67
2018-08-01 09:00:00 22.6 15 Noroeste 26 Noroeste 0 -- -- 71
2018-08-01 08:00:00 20.8 10 Noroeste 19 Noroeste 0 -- -- 78
2018-08-01 07:00:00 19.9 8 Noroeste 18 Noroeste 0 -- -- 81
2018-08-01 06:00:00 20.4 12 Noroeste 23 Noroeste 0 -- -- 78
2018-08-01 05:00:00 20.7 13 Noroeste 24 Noroeste 0 -- -- 78
2018-08-01 04:00:00 20.9 9 Noroeste 21 Noroeste 0 -- -- 77
2018-08-01 03:00:00 21.4 11 Noroeste 23 Noroeste 0 -- -- 74
2018-08-01 02:00:00 21.7 13 Noroeste 27 Noroeste 0 -- -- 72
2018-08-01 01:00:00 21.9 14 Noroeste 27 Noroeste 0 -- -- 71
2018-08-01 00:00:00 22.6 17 Noroeste 29 Noroeste 0 -- -- 69
2018-07-31 23:00:00 23.1 13 Noroeste 32 Norte 0 -- -- 67
2018-07-31 22:00:00 24 22 Norte 36 Norte 0 -- -- 62
2018-07-31 21:00:00 25.7 18 Norte 32 Norte 0 -- -- 58
2018-07-31 20:00:00 28.3 14 Norte 31 Norte 0 -- -- 50
2018-07-31 19:00:00 30.1 18 Norte 32 Norte 0 -- -- 45
2018-07-31 18:00:00 31.3 15 Norte 27 Norte 0 -- -- 45
2018-07-31 17:00:00 32.3 15 Norte 28 Norte 0 -- -- 44
2018-07-31 16:00:00 32.6 14 Norte 35 Noroeste 0 -- -- 41
2018-07-31 15:00:00 32 14 Noroeste 28 Noroeste 0 -- -- 44
2018-07-31 14:00:00 30.8 15 Noroeste 30 Noroeste 0 -- -- 47
2018-07-31 13:00:00 29.5 16 Noroeste 28 Noroeste 0 -- -- 52
2018-07-31 12:00:00 27.6 14 Noroeste 28 Noroeste 0 -- -- 55
2018-07-31 11:00:00 25.8 19 Noroeste 30 Noroeste 0 -- -- 59
2018-07-31 10:00:00 24.6 18 Noroeste 32 Noroeste 0 -- -- 63
2018-07-31 09:00:00 22.8 13 Noroeste 22 Noroeste 0 -- -- 68
2018-07-31 08:00:00 20.9 13 Noroeste 27 Noroeste 0 -- -- 72
2018-07-31 07:00:00 19.9 15 Noroeste 27 Noroeste 0 -- -- 75
2018-07-31 06:00:00 20.2 7 Noroeste 18 Noroeste 0 -- -- 75
2018-07-31 05:00:00 20.7 5 Noroeste 14 Noroeste 0 -- -- 74
2018-07-31 04:00:00 21.7 6 Noroeste 21 Noroeste 0 -- -- 71
2018-07-31 03:00:00 22.7 11 Noroeste 23 Norte 0 -- -- 69
2018-07-31 02:00:00 24 14 Noroeste 22 Noroeste 0 -- -- 68
2018-07-31 01:00:00 24.6 10 Noroeste 30 Oeste 0 -- -- 69
2018-07-31 00:00:00 25.6 19 Noroeste 28 Noroeste 0 -- -- 66
2018-07-30 23:00:00 26.6 13 Noroeste 18 Noroeste 0 -- -- 61
2018-07-30 22:00:00 28 6 Norte 15 Norte 0 -- -- 57
2018-07-30 21:00:00 31.5 5 Noroeste 13 Norte 0 -- -- 37
2018-07-30 20:00:00 33.3 6 Norte 12 Norte 0 -- -- 33
2018-07-30 19:00:00 34.4 6 Norte 14 Nordeste 0 -- -- 33
2018-07-30 18:00:00 34.2 12 Nordeste 20 Este 0 -- -- 34
2018-07-30 17:00:00 34.6 5 Nordeste 17 Nordeste 0 -- -- 32
2018-07-30 16:00:00 33.6 6 Este 15 Este 0 -- -- 35
2018-07-30 15:00:00 32.3 5 Este 15 Este 0 -- -- 33
2018-07-30 14:00:00 30.5 4 Nordeste 15 Norte 0 -- -- 40
2018-07-30 13:00:00 29 6 Nordeste 16 Norte 0 -- -- 46
2018-07-30 12:00:00 26.5 10 Noroeste 18 Noroeste 0 -- -- 53
2018-07-30 11:00:00 24.8 7 Noroeste 17 Norte 0 -- -- 64
2018-07-30 10:00:00 22.9 10 Noroeste 19 Norte 0 -- -- 72
2018-07-30 09:00:00 20.9 10 Norte 17 Norte 0 -- -- 80
2018-07-30 08:00:00 19.1 7 Noroeste 13 Noroeste 0 -- -- 88
2018-07-30 07:00:00 18.4 8 Noroeste 15 Noroeste 0 -- -- 89
2018-07-30 06:00:00 19 7 Noroeste 17 Noroeste 0 -- -- 87
2018-07-30 05:00:00 19.6 8 Noroeste 19 Noroeste 0 -- -- 85
2018-07-30 04:00:00 19.9 7 Noroeste 14 Noroeste 0 -- -- 81
2018-07-30 03:00:00 20.7 8 Noroeste 19 Noroeste 0 -- -- 77
2018-07-30 02:00:00 21.4 10 Noroeste 22 Noroeste 0 -- -- 75
2018-07-30 01:00:00 22.2 11 Noroeste 24 Noroeste 0 -- -- 72
2018-07-30 00:00:00 23.1 11 Noroeste 28 Noroeste 0 -- -- 70
2018-07-29 23:00:00 24.2 14 Noroeste 30 Noroeste 0 -- -- 65
2018-07-29 22:00:00 26.3 16 Noroeste 27 Noroeste 0 -- -- 59
2018-07-29 21:00:00 28.7 10 Norte 23 Norte 0 -- -- 52
2018-07-29 20:00:00 32.1 10 Noroeste 20 Norte 0 -- -- 35
2018-07-29 19:00:00 32.6 6 Este 15 Este 0 -- -- 39
2018-07-29 18:00:00 32.9 8 Nordeste 14 Nordeste 0 -- -- 37
2018-07-29 17:00:00 32.3 10 Nordeste 19 Nordeste 0 -- -- 37
2018-07-29 16:00:00 32.7 6 Noroeste 18 Noroeste 0 -- -- 36
2018-07-29 15:00:00 30.9 5 Noroeste 15 Nordeste 0 -- -- 45
2018-07-29 14:00:00 29.5 6 Nordeste 17 Nordeste 0 -- -- 52
2018-07-29 13:00:00 28.2 5 Norte 13 Este 0 -- -- 56
2018-07-29 12:00:00 27 3 Sur 9 Este 0 -- -- 60
2018-07-29 11:00:00 24.9 5 Nordeste 14 Norte 0 -- -- 64
2018-07-29 10:00:00 22.5 6 Norte 12 Norte 0 -- -- 71
2018-07-29 09:00:00 20.5 4 Norte 7 Norte 0 -- -- 78
2018-07-29 08:00:00 15.8 2 Sudoeste 5 Este 0 -- -- 89
2018-07-29 07:00:00 14.4 2 Oeste 8 Oeste 0 -- -- 90
2018-07-29 06:00:00 14.6 5 Oeste 8 Sudoeste 0 -- -- 85
2018-07-29 05:00:00 15.8 0 Calma 5 Sudeste 0 -- -- 89
2018-07-29 04:00:00 16 4 Sudoeste 5 Sudoeste 0 -- -- 83
2018-07-29 03:00:00 17.3 3 Sudoeste 4 Sudoeste 0 -- -- 77
2018-07-29 02:00:00 19 0 Calma 5 Norte 0 -- -- 77
2018-07-29 01:00:00 20.5 3 Noroeste 13 Oeste 0 -- -- 70
2018-07-29 00:00:00 21.4 8 Noroeste 17 Oeste 0 -- -- 67
2018-07-28 23:00:00 22.3 11 Noroeste 17 Oeste 0 -- -- 64
2018-07-28 22:00:00 23.7 8 Noroeste 17 Noroeste 0 -- -- 58
2018-07-28 21:00:00 25.5 11 Norte 26 Noroeste 0 -- -- 53
2018-07-28 20:00:00 27.4 12 Norte 21 Norte 0 -- -- 49
2018-07-28 19:00:00 29 10 Norte 23 Norte 0 -- -- 44
2018-07-28 18:00:00 29.3 13 Norte 26 Norte 0 -- -- 44
2018-07-28 17:00:00 29.4 9 Norte 26 Norte 0 -- -- 45
2018-07-28 16:00:00 28.9 14 Nordeste 27 Norte 0 -- -- 46
2018-07-28 15:00:00 29.2 15 Norte 23 Norte 0 -- -- 47
2018-07-28 14:00:00 28.4 13 Norte 28 Norte 0 -- -- 49
2018-07-28 13:00:00 27.5 14 Norte 28 Noroeste 0 -- -- 51
2018-07-28 12:00:00 26.5 15 Noroeste 28 Noroeste 0 -- -- 57
2018-07-28 11:00:00 24.9 16 Noroeste 28 Norte 0 -- -- 62
2018-07-28 10:00:00 23.7 14 Noroeste 28 Noroeste 0 -- -- 67
2018-07-28 09:00:00 22.4 16 Noroeste 25 Noroeste 0 -- -- 72
2018-07-28 08:00:00 21.4 9 Noroeste 19 Noroeste 0 -- -- 77
2018-07-28 07:00:00 21.4 11 Noroeste 20 Noroeste 0 -- -- 77
2018-07-28 06:00:00 22 8 Noroeste 24 Noroeste 0 -- -- 76
2018-07-28 05:00:00 22.4 11 Noroeste 24 Noroeste 0 -- -- 77
2018-07-28 04:00:00 21.9 12 Noroeste 23 Noroeste 0 -- -- 78
2018-07-28 03:00:00 21.9 12 Noroeste 30 Noroeste 0 -- -- 79
2018-07-28 02:00:00 22.4 17 Noroeste 31 Noroeste 0 -- -- 76
2018-07-28 01:00:00 23 16 Noroeste 29 Noroeste 0 -- -- 74
2018-07-28 00:00:00 23.6 14 Noroeste 27 Norte 0 -- -- 71
2018-07-27 23:00:00 24.4 15 Norte 29 Norte 0 -- -- 67
2018-07-27 22:00:00 26.5 11 Noroeste 24 Noroeste 0 -- -- 63
2018-07-27 21:00:00 29.8 9 Norte 24 Nordeste 0 -- -- 51
2018-07-27 20:00:00 32.3 5 Norte 14 Oeste 0 -- -- 39
2018-07-27 19:00:00 32.9 10 Norte 18 Noroeste 0 -- -- 38
2018-07-27 18:00:00 33.3 9 Norte 17 Noroeste 0 -- -- 39
2018-07-27 17:00:00 33.6 4 Norte 15 Norte 0 -- -- 39
2018-07-27 16:00:00 32.8 7 Norte 18 Nordeste 0 -- -- 41
2018-07-27 15:00:00 31.8 9 Nordeste 21 Este 0 -- -- 42
2018-07-27 14:00:00 30.2 6 Nordeste 19 Nordeste 0 -- -- 51
2018-07-27 13:00:00 28.5 6 Nordeste 12 Nordeste 0 -- -- 54
2018-07-27 12:00:00 26.7 2 Sudeste 8 Norte 0 -- -- 58
2018-07-27 11:00:00 25.5 3 Sudeste 12 Norte 0 -- -- 60
2018-07-27 10:00:00 24.4 4 Oeste 9 Oeste 0 -- -- 66
2018-07-27 09:00:00 22.7 5 Noroeste 10 Noroeste 0 -- -- 70
2018-07-27 08:00:00 19.2 2 Oeste 5 Noroeste 0 -- -- 84
2018-07-27 07:00:00 18.5 5 Noroeste 9 Noroeste 0 -- -- 83
2018-07-27 06:00:00 19.1 6 Noroeste 12 Oeste 0 -- -- 81
2018-07-27 05:00:00 20.3 7 Noroeste 17 Noroeste 0 -- -- 77
2018-07-27 04:00:00 20.9 9 Noroeste 22 Noroeste 0 -- -- 76
2018-07-27 03:00:00 21.4 12 Noroeste 28 Noroeste 0 -- -- 74
2018-07-27 02:00:00 22 13 Noroeste 29 Noroeste 0 -- -- 73
2018-07-27 01:00:00 22.7 14 Noroeste 30 Noroeste 0 -- -- 71
2018-07-27 00:00:00 23.5 14 Noroeste 32 Noroeste 0 -- -- 68
2018-07-26 23:00:00 24.4 14 Noroeste 37 Norte 0 -- -- 66
2018-07-26 22:00:00 25.7 21 Norte 37 Norte 0 -- -- 61
2018-07-26 21:00:00 28.3 20 Noroeste 33 Noroeste 0 -- -- 54
2018-07-26 20:00:00 31.1 16 Norte 26 Norte 0 -- -- 47
2018-07-26 19:00:00 34.5 4 Norte 10 Este 0 -- -- 31
2018-07-26 18:00:00 35.4 6 Este 19 Este 0 -- -- 34
2018-07-26 17:00:00 35.3 10 Nordeste 19 Este 0 -- -- 30
2018-07-26 16:00:00 35.3 9 Este 21 Sudeste 0 -- -- 35
2018-07-26 15:00:00 34.1 11 Sudeste 20 Este 0 -- -- 37
2018-07-26 14:00:00 32.6 8 Sudeste 20 Sudeste 0 -- -- 40
2018-07-26 13:00:00 30.7 8 Sur 19 Sudeste 0 -- -- 50
2018-07-26 12:00:00 29.2 6 Sudeste 19 Este 0 -- -- 52
2018-07-26 11:00:00 27.4 7 Sur 15 Sudeste 0 -- -- 58
2018-07-26 10:00:00 25.5 6 Este 13 Este 0 -- -- 72
2018-07-26 09:00:00 23.6 2 Este 4 Este 0 -- -- 74
2018-07-26 08:00:00 19.5 0 Calma 4 Sudoeste 0 -- -- 90
2018-07-26 07:00:00 18.3 0 Calma 9 Sur 0 -- -- 89
2018-07-26 06:00:00 19.2 3 Sur 8 Sur 0 -- -- 87
2018-07-26 05:00:00 20.1 3 Sur 6 Sur 0 -- -- 85
2018-07-26 04:00:00 21.2 5 Sudoeste 8 Noroeste 0 -- -- 82
2018-07-26 03:00:00 22.2 3 Norte 10 Noroeste 0 -- -- 81
2018-07-26 02:00:00 22.8 4 Nordeste 13 Noroeste 0 -- -- 80
2018-07-26 01:00:00 24.2 5 Norte 14 Noroeste 0 -- -- 72
2018-07-26 00:00:00 24.8 7 Noroeste 18 Oeste 0 -- -- 71
2018-07-25 23:00:00 24.7 2 Oeste 9 Oeste 0 -- -- 66
2018-07-25 22:00:00 28.2 2 Nordeste 8 Sur 0 -- -- 60
2018-07-25 21:00:00 31.9 5 Sur 8 Este 0 -- -- 45
2018-07-25 20:00:00 33.3 6 Sudeste 13 Nordeste 0 -- -- 40
2018-07-25 19:00:00 33.8 6 Este 19 Este 0 -- -- 35
2018-07-25 18:00:00 33.7 11 Este 24 Este 0 -- -- 38
2018-07-25 17:00:00 33.8 9 Este 21 Sudeste 0 -- -- 42
2018-07-25 16:00:00 33.1 9 Este 23 Este 0 -- -- 42
2018-07-25 15:00:00 31.6 6 Este 17 Este 0 -- -- 45
2018-07-25 14:00:00 30.2 6 Sudeste 13 Sudeste 0 -- -- 51
2018-07-25 13:00:00 28.8 5 Este 15 Norte 0 -- -- 54
2018-07-25 12:00:00 27.2 7 Noroeste 18 Noroeste 0 -- -- 58
2018-07-25 11:00:00 25.6 10 Noroeste 23 Noroeste 0 -- -- 62
2018-07-25 10:00:00 24.2 11 Noroeste 22 Norte 0 -- -- 65
2018-07-25 09:00:00 22.4 12 Noroeste 18 Noroeste 0 -- -- 73
2018-07-25 08:00:00 19.9 8 Noroeste 14 Noroeste 0 -- -- 81
2018-07-25 07:00:00 19.5 10 Noroeste 19 Noroeste 0 -- -- 80
2018-07-25 06:00:00 19.6 9 Noroeste 18 Noroeste 0 -- -- 79
2018-07-25 05:00:00 19.9 11 Noroeste 21 Noroeste 0 -- -- 78
2018-07-25 04:00:00 20.2 11 Noroeste 19 Noroeste 0 -- -- 81
2018-07-25 03:00:00 20.7 10 Noroeste 21 Noroeste 0 -- -- 79
2018-07-25 02:00:00 21 11 Noroeste 17 Noroeste 0 -- -- 74
2018-07-25 01:00:00 22.1 7 Norte 24 Noroeste 0 -- -- 72
2018-07-25 00:00:00 23.1 9 Noroeste 33 Noroeste 0 -- -- 69
2018-07-24 23:00:00 24 14 Noroeste 28 Noroeste 0 -- -- 66
2018-07-24 22:00:00 24.8 15 Norte 30 Norte 0 -- -- 63
2018-07-24 21:00:00 26.7 18 Norte 35 Noroeste 0 -- -- 57
2018-07-24 20:00:00 29.4 18 Norte 32 Norte 0 -- -- 52
2018-07-24 19:00:00 31.4 18 Norte 32 Norte 0 -- -- 47
2018-07-24 18:00:00 33.3 12 Norte 28 Norte 0 -- -- 39
2018-07-24 17:00:00 34 14 Noroeste 27 Norte 0 -- -- 37
2018-07-24 16:00:00 33.7 12 Noroeste 23 Norte 0 -- -- 39
2018-07-24 15:00:00 32.1 10 Nordeste 18 Este 0 -- -- 44
2018-07-24 14:00:00 31.2 7 Nordeste 20 Nordeste 0 -- -- 45
2018-07-24 13:00:00 29.8 4 Norte 12 Norte 0 -- -- 47
2018-07-24 12:00:00 28.4 4 Nordeste 10 Norte 0 -- -- 54
2018-07-24 11:00:00 26.8 5 Nordeste 13 Norte 0 -- -- 62
2018-07-24 10:00:00 25 3 Norte 15 Norte 0 -- -- 66
2018-07-24 09:00:00 22.8 6 Noroeste 15 Norte 0 -- -- 76
2018-07-24 08:00:00 18.6 0 Calma 5 Sur 0 -- -- 90
2018-07-24 07:00:00 17 2 Sudoeste 8 Sudoeste 0 -- -- 87
2018-07-24 06:00:00 17.7 3 Sudoeste 7 Oeste 0 -- -- 86
2018-07-24 05:00:00 18.8 4 Sudoeste 6 Este 0 -- -- 82
2018-07-24 04:00:00 20.3 7 Nordeste 9 Nordeste 0 -- -- 82
2018-07-24 03:00:00 20.7 0 Calma 9 Noroeste 0 -- -- 77
2018-07-24 02:00:00 21.3 5 Norte 11 Noroeste 0 -- -- 76
2018-07-24 01:00:00 22.3 6 Noroeste 10 Noroeste 0 -- -- 70
2018-07-24 00:00:00 23 6 Sudoeste 8 Sudoeste 0 -- -- 71
2018-07-23 23:00:00 24.7 3 Noroeste 9 Sudoeste 0 -- -- 65
2018-07-23 22:00:00 27.4 3 Oeste 6 Noroeste 0 -- -- 56
2018-07-23 21:00:00 31.7 0 Calma 4 Sur 0 -- -- 46
2018-07-23 20:00:00 33 2 Norte 6 Norte 0 -- -- 34
2018-07-23 19:00:00 33.5 2 Sur 9 Oeste 0 -- -- 35
2018-07-23 18:00:00 32.4 4 Norte 11 Norte 0 -- -- 37
2018-07-23 17:00:00 32.1 6 Norte 12 Este 0 -- -- 40
2018-07-23 16:00:00 30.9 6 Norte 13 Este 0 -- -- 43
2018-07-23 15:00:00 29.7 8 Este 16 Este 0 -- -- 45
2018-07-23 14:00:00 28.2 5 Este 15 Nordeste 0 -- -- 50
2018-07-23 13:00:00 26.5 4 Nordeste 14 Sudeste 0 -- -- 54
2018-07-23 12:00:00 25.1 4 Noroeste 10 Sudeste 0 -- -- 57
2018-07-23 11:00:00 23.1 4 Noroeste 13 Norte 0 -- -- 62
2018-07-23 10:00:00 21.2 8 Norte 17 Norte 0 -- -- 70
2018-07-23 09:00:00 19.4 5 Norte 9 Norte 0 -- -- 77
2018-07-23 08:00:00 16.9 4 Este 9 Noroeste 0 -- -- 87
2018-07-23 07:00:00 15 6 Noroeste 10 Noroeste 0 -- -- 90
2018-07-23 06:00:00 14.9 6 Noroeste 11 Noroeste 0 -- -- 88
2018-07-23 05:00:00 15.3 7 Noroeste 10 Noroeste 0 -- -- 86
2018-07-23 04:00:00 16.1 5 Oeste 13 Oeste 0 -- -- 79
2018-07-23 03:00:00 17.1 10 Noroeste 13 Noroeste 0 -- -- 78
2018-07-23 02:00:00 18.1 8 Noroeste 15 Noroeste 0 -- -- 75
2018-07-23 01:00:00 19 8 Noroeste 19 Noroeste 0 -- -- 72
2018-07-23 00:00:00 20 11 Noroeste 20 Noroeste 0 -- -- 69
2018-07-22 23:00:00 21.1 12 Noroeste 25 Noroeste 0 -- -- 65
2018-07-22 22:00:00 21.9 10 Norte 30 Norte 0 -- -- 61
2018-07-22 21:00:00 23.7 18 Norte 30 Norte 0 -- -- 54
2018-07-22 20:00:00 25.4 17 Norte 33 Norte 0 -- -- 49
2018-07-22 19:00:00 27.1 19 Norte 36 Norte 0 -- -- 46
2018-07-22 18:00:00 28.8 15 Noroeste 28 Noroeste 0 -- -- 39
2018-07-22 17:00:00 29.2 16 Noroeste 33 Noroeste 0 -- -- 39
2018-07-22 16:00:00 28.1 15 Norte 31 Noroeste 0 -- -- 41
2018-07-22 15:00:00 27.9 12 Noroeste 33 Noroeste 0 -- -- 43
2018-07-22 14:00:00 26.8 13 Noroeste 28 Noroeste 0 -- -- 48
2018-07-22 13:00:00 25.3 12 Noroeste 28 Noroeste 0 -- -- 50
2018-07-22 12:00:00 23.9 10 Norte 27 Noroeste 0 -- -- 55
2018-07-22 11:00:00 21.5 10 Noroeste 26 Noroeste 0 -- -- 66
2018-07-22 10:00:00 18.6 14 Noroeste 24 Norte 0 -- -- 78
2018-07-22 09:00:00 17.1 13 Noroeste 22 Noroeste 0 -- -- 82
2018-07-22 08:00:00 17.4 12 Noroeste 18 Noroeste 0 -- -- 81
2018-07-22 07:00:00 15.4 7 Noroeste 15 Noroeste 0 -- -- 87
2018-07-22 06:00:00 16.1 7 Noroeste 11 Noroeste 0 -- -- 84
2018-07-22 05:00:00 16.8 6 Noroeste 10 Noroeste 0 -- -- 81
2018-07-22 04:00:00 17.2 5 Noroeste 12 Noroeste 0 -- -- 78
2018-07-22 03:00:00 17.6 6 Noroeste 17 Noroeste 0 -- -- 75
2018-07-22 02:00:00 18 10 Noroeste 14 Noroeste 0 -- -- 74
2018-07-22 01:00:00 18.9 8 Noroeste 19 Noroeste 0 -- -- 69
2018-07-22 00:00:00 19.5 10 Norte 18 Norte 0 -- -- 64
2018-07-21 23:00:00 19.9 8 Noroeste 17 Noroeste 0 -- -- 59
2018-07-21 22:00:00 20.5 10 Norte 17 Norte 0 -- -- 54
2018-07-21 21:00:00 21 7 Norte 19 Noroeste 0 -- -- 54
2018-07-21 20:00:00 22 5 Noroeste 18 Noroeste 0 -- -- 52
2018-07-21 19:00:00 22.5 12 Norte 24 Norte 0 -- -- 48
2018-07-21 18:00:00 22.9 15 Norte 26 Noroeste 0 -- -- 50
2018-07-21 17:00:00 22.9 15 Norte 27 Norte 0 -- -- 53
2018-07-21 16:00:00 24 14 Noroeste 24 Noroeste 0 -- -- 48
2018-07-21 15:00:00 24.4 14 Norte 30 Norte 0 -- -- 47
2018-07-21 14:00:00 24.3 12 Norte 26 Norte 0 -- -- 46
2018-07-21 13:00:00 24.1 11 Noroeste 28 Noroeste 0 -- -- 51
2018-07-21 12:00:00 23.1 15 Noroeste 30 Norte 0 -- -- 52
2018-07-21 11:00:00 21.4 18 Norte 29 Noroeste 0 -- -- 56
2018-07-21 10:00:00 20.2 17 Norte 28 Noroeste 0 -- -- 60
2018-07-21 09:00:00 18.9 12 Norte 20 Noroeste 0 -- -- 68
2018-07-21 08:00:00 17 10 Noroeste 19 Noroeste 0 -- -- 78
2018-07-21 07:00:00 15.5 8 Noroeste 20 Noroeste 0 -- -- 81
2018-07-21 06:00:00 16.1 12 Noroeste 19 Noroeste 0 -- -- 78
2018-07-21 05:00:00 17.1 13 Noroeste 26 Noroeste 0 -- -- 74
2018-07-21 04:00:00 17.5 14 Noroeste 26 Noroeste 0 -- -- 75
2018-07-21 03:00:00 17.7 14 Noroeste 22 Noroeste 0 -- -- 76
2018-07-21 02:00:00 17.6 11 Noroeste 27 Norte 0 -- -- 73
2018-07-21 01:00:00 18 13 Noroeste 28 Norte 0 -- -- 78
2018-07-21 00:00:00 18.1 14 Noroeste 38 Noroeste 0 -- -- 76
2018-07-20 23:00:00 18.3 21 Noroeste 39 Noroeste 0 -- -- 76
2018-07-20 22:00:00 19.1 20 Norte 35 Norte 0 -- -- 78
2018-07-20 21:00:00 20.1 3 Este 7 Oeste 0.2 -- -- 86
2018-07-20 20:00:00 19.9 8 Noroeste 25 Oeste 0.6 -- -- 84
2018-07-20 19:00:00 20.7 14 Noroeste 33 Norte 0 -- -- 77
2018-07-20 18:00:00 22.8 21 Norte 46 Noroeste 0 -- -- 61
2018-07-20 17:00:00 25.5 23 Norte 39 Norte 0 -- -- 56
2018-07-20 16:00:00 24.8 17 Norte 35 Noroeste 0 -- -- 56
2018-07-20 15:00:00 27.7 22 Norte 39 Norte 0 -- -- 49
2018-07-20 14:00:00 26.8 18 Noroeste 42 Oeste 0 -- -- 52
2018-07-20 13:00:00 26.2 18 Noroeste 38 Noroeste 0 -- -- 55
2018-07-20 12:00:00 24.8 20 Noroeste 41 Noroeste 0 -- -- 61
2018-07-20 11:00:00 23.4 22 Noroeste 39 Noroeste 0 -- -- 65
2018-07-20 10:00:00 22.5 21 Noroeste 36 Noroeste 0 -- -- 67
2018-07-20 09:00:00 22.1 21 Noroeste 37 Noroeste 0 -- -- 68
2018-07-20 08:00:00 20.8 18 Noroeste 27 Noroeste 0 -- -- 73
2018-07-20 07:00:00 19.4 12 Noroeste 20 Noroeste 0 -- -- 78
2018-07-20 06:00:00 19.9 11 Noroeste 21 Noroeste 0 -- -- 77
2018-07-20 05:00:00 19.4 9 Noroeste 23 Noroeste 0 -- -- 81
2018-07-20 04:00:00 19.8 14 Noroeste 26 Noroeste 0 -- -- 78
2018-07-20 03:00:00 20.1 13 Norte 25 Noroeste 0 -- -- 78
2018-07-20 02:00:00 20.5 13 Noroeste 24 Norte 0 -- -- 80
2018-07-20 01:00:00 21.1 13 Noroeste 26 Noroeste 0 -- -- 78
2018-07-20 00:00:00 21.5 14 Noroeste 29 Noroeste 0 -- -- 77